KMGR/MGR METAR and TAF weather

Enter ICAO airport designator
Station Type Date Time Source
KMGR METAR 2019/04/23 04:35 UTC NOAA

KMGR 230435Z AUTO 00000KT 10SM CLR 15/12 A3016 RMK AO2


Station Type Date Time Source
KMGR Decoded METAR 2019/04/23 04:35 UTC NOAA

Moultrie, Moultrie Municipal Airport, GA, United States (KMGR) 31-05-05N 083-48-11W
Apr 23, 2019 - 12:35 AM EDT / 2019.04.23 0435 UTC
Wind: Calm:0
Visibility: 10 mile(s):0
Sky conditions: clear
Temperature: 59 F (15 C)
Dew Point: 53 F (12 C)
Relative Humidity: 82%
Pressure (altimeter): 30.16 in. Hg (1021 hPa)
ob: KMGR 230435Z AUTO 00000KT 10SM CLR 15/12 A3016 RMK AO2
cycle: 4

Station Type Date Time Source
KMGR TAF UTC NOAA

Error!

Example: see airport list